sensor_id;sensor_type;location;lat;lon;timestamp;pressure;altitude;pressure_sealevel;temperature;humidity
61506;BME280;47366;51.916;4.574;2023-03-24T00:01:37;99776.09;;;11.76;100.00
61506;BME280;47366;51.916;4.574;2023-03-24T00:04:02;99765.25;;;11.76;100.00
61506;BME280;47366;51.916;4.574;2023-03-24T00:06:28;99763.66;;;11.74;100.00
61506;BME280;47366;51.916;4.574;2023-03-24T00:08:58;99757.22;;;11.75;100.00
61506;BME280;47366;51.916;4.574;2023-03-24T00:11:24;99781.41;;;11.78;100.00
61506;BME280;47366;51.916;4.574;2023-03-24T00:13:50;99752.41;;;11.78;100.00
61506;BME280;47366;51.916;4.574;2023-03-24T00:16:16;99762.13;;;11.81;100.00
61506;BME280;47366;51.916;4.574;2023-03-24T00:18:44;99762.63;;;11.86;100.00
61506;BME280;47366;51.916;4.574;2023-03-24T00:21:14;99754.47;;;11.86;100.00
61506;BME280;47366;51.916;4.574;2023-03-24T00:23:39;99741.66;;;11.88;100.00
61506;BME280;47366;51.916;4.574;2023-03-24T00:26:09;99731.66;;;11.88;100.00
61506;BME280;47366;51.916;4.574;2023-03-24T00:28:37;99743.00;;;11.94;100.00
61506;BME280;47366;51.916;4.574;2023-03-24T00:31:04;99738.56;;;11.93;99.93
61506;BME280;47366;51.916;4.574;2023-03-24T00:33:31;99732.88;;;11.96;99.67
61506;BME280;47366;51.916;4.574;2023-03-24T00:35:58;99730.31;;;11.94;99.59
61506;BME280;47366;51.916;4.574;2023-03-24T00:38:24;99728.44;;;11.95;100.00
61506;BME280;47366;51.916;4.574;2023-03-24T00:40:51;99730.16;;;11.96;99.98
61506;BME280;47366;51.916;4.574;2023-03-24T00:43:17;99716.47;;;11.97;99.64
61506;BME280;47366;51.916;4.574;2023-03-24T00:45:43;99725.59;;;11.96;100.00
61506;BME280;47366;51.916;4.574;2023-03-24T00:48:16;99730.16;;;11.96;100.00
61506;BME280;47366;51.916;4.574;2023-03-24T00:50:50;99723.03;;;11.95;100.00
61506;BME280;47366;51.916;4.574;2023-03-24T00:53:16;99705.28;;;11.90;100.00
61506;BME280;47366;51.916;4.574;2023-03-24T00:55:43;99706.97;;;11.92;100.00
61506;BME280;47366;51.916;4.574;2023-03-24T00:58:13;99714.16;;;11.93;100.00
61506;BME280;47366;51.916;4.574;2023-03-24T01:00:42;99705.88;;;11.94;100.00
61506;BME280;47366;51.916;4.574;2023-03-24T01:03:08;99704.25;;;11.92;100.00
61506;BME280;47366;51.916;4.574;2023-03-24T01:05:33;99699.72;;;11.92;100.00
61506;BME280;47366;51.916;4.574;2023-03-24T01:08:01;99712.16;;;11.95;100.00
61506;BME280;47366;51.916;4.574;2023-03-24T01:10:36;99706.75;;;11.95;100.00
61506;BME280;47366;51.916;4.574;2023-03-24T01:13:07;99703.88;;;11.96;100.00
61506;BME280;47366;51.916;4.574;2023-03-24T01:15:33;99692.16;;;11.96;100.00
61506;BME280;47366;51.916;4.574;2023-03-24T01:18:00;99695.72;;;11.96;100.00
61506;BME280;47366;51.916;4.574;2023-03-24T01:20:27;99687.34;;;11.99;100.00
61506;BME280;47366;51.916;4.574;2023-03-24T01:22:57;99691.88;;;11.99;100.00
61506;BME280;47366;51.916;4.574;2023-03-24T01:25:23;99704.38;;;12.01;100.00
61506;BME280;47366;51.916;4.574;2023-03-24T01:27:51;99705.94;;;12.04;100.00
61506;BME280;47366;51.916;4.574;2023-03-24T01:30:22;99710.50;;;12.03;100.00
61506;BME280;47366;51.916;4.574;2023-03-24T01:32:48;99700.25;;;12.07;100.00
61506;BME280;47366;51.916;4.574;2023-03-24T01:35:13;99699.53;;;12.05;100.00
61506;BME280;47366;51.916;4.574;2023-03-24T01:37:39;99705.81;;;12.05;100.00
61506;BME280;47366;51.916;4.574;2023-03-24T01:40:06;99708.50;;;12.05;100.00
61506;BME280;47366;51.916;4.574;2023-03-24T01:42:36;99719.66;;;12.02;100.00
61506;BME280;47366;51.916;4.574;2023-03-24T01:48:17;99776.75;;;12.01;100.00
61506;BME280;47366;51.916;4.574;2023-03-24T01:50:51;99768.41;;;11.93;100.00
61506;BME280;47366;51.916;4.574;2023-03-24T01:53:19;99767.41;;;11.94;100.00
61506;BME280;47366;51.916;4.574;2023-03-24T01:55:46;99766.94;;;11.88;100.00
61506;BME280;47366;51.916;4.574;2023-03-24T01:58:12;99771.03;;;11.83;99.90
61506;BME280;47366;51.916;4.574;2023-03-24T02:00:37;99766.38;;;11.74;99.25
61506;BME280;47366;51.916;4.574;2023-03-24T02:03:07;99783.59;;;11.73;98.43
61506;BME280;47366;51.916;4.574;2023-03-24T02:05:37;99777.13;;;11.64;97.72
61506;BME280;47366;51.916;4.574;2023-03-24T02:10:32;99800.44;;;11.55;96.91
61506;BME280;47366;51.916;4.574;2023-03-24T02:12:58;99797.88;;;11.54;96.90
61506;BME280;47366;51.916;4.574;2023-03-24T02:15:27;99811.06;;;11.47;96.74
61506;BME280;47366;51.916;4.574;2023-03-24T02:18:08;99815.88;;;11.43;96.78
61506;BME280;47366;51.916;4.574;2023-03-24T02:21:40;99829.19;;;11.35;95.75
61506;BME280;47366;51.916;4.574;2023-03-24T02:23:56;99834.88;;;11.32;95.83
61506;BME280;47366;51.916;4.574;2023-03-24T02:29:35;99839.28;;;11.22;95.30
61506;BME280;47366;51.916;4.574;2023-03-24T02:40:50;99864.66;;;10.98;94.68
61506;BME280;47366;51.916;4.574;2023-03-24T02:43:42;99866.03;;;10.93;94.63
61506;BME280;47366;51.916;4.574;2023-03-24T02:46:21;99871.31;;;10.83;94.55
61506;BME280;47366;51.916;4.574;2023-03-24T02:52:02;99888.03;;;10.77;94.85
61506;BME280;47366;51.916;4.574;2023-03-24T02:54:56;99889.47;;;10.70;95.16
61506;BME280;47366;51.916;4.574;2023-03-24T02:57:31;99882.31;;;10.57;94.20
61506;BME280;47366;51.916;4.574;2023-03-24T03:03:05;99904.56;;;10.50;95.04
61506;BME280;47366;51.916;4.574;2023-03-24T03:05:35;99909.56;;;10.43;95.32
61506;BME280;47366;51.916;4.574;2023-03-24T03:08:04;99903.66;;;10.38;95.25
61506;BME280;47366;51.916;4.574;2023-03-24T03:10:37;99914.72;;;10.35;95.08
61506;BME280;47366;51.916;4.574;2023-03-24T03:13:19;99908.66;;;10.31;95.26
61506;BME280;47366;51.916;4.574;2023-03-24T03:15:50;99902.59;;;10.28;95.33
61506;BME280;47366;51.916;4.574;2023-03-24T03:18:22;99908.13;;;10.26;95.30
61506;BME280;47366;51.916;4.574;2023-03-24T03:20:53;99925.34;;;10.25;95.15
61506;BME280;47366;51.916;4.574;2023-03-24T03:23:37;99934.91;;;10.18;95.17
61506;BME280;47366;51.916;4.574;2023-03-24T03:26:06;99928.09;;;10.12;95.21
61506;BME280;47366;51.916;4.574;2023-03-24T03:28:35;99921.47;;;10.16;95.56
61506;BME280;47366;51.916;4.574;2023-03-24T03:31:13;99935.25;;;10.13;95.54
61506;BME280;47366;51.916;4.574;2023-03-24T03:33:43;99938.16;;;10.10;95.60
61506;BME280;47366;51.916;4.574;2023-03-24T03:36:17;99942.84;;;10.08;95.82
61506;BME280;47366;51.916;4.574;2023-03-24T03:38:53;99944.66;;;10.08;96.09
61506;BME280;47366;51.916;4.574;2023-03-24T03:41:20;99943.91;;;10.06;96.24
61506;BME280;47366;51.916;4.574;2023-03-24T03:43:47;99945.00;;;10.03;96.48
61506;BME280;47366;51.916;4.574;2023-03-24T03:46:13;99946.84;;;10.03;96.06
61506;BME280;47366;51.916;4.574;2023-03-24T03:48:40;99951.41;;;10.02;95.83
61506;BME280;47366;51.916;4.574;2023-03-24T03:51:07;99951.06;;;10.07;95.81
61506;BME280;47366;51.916;4.574;2023-03-24T03:53:46;99954.75;;;10.06;95.37
61506;BME280;47366;51.916;4.574;2023-03-24T03:56:17;99953.38;;;10.00;95.44
61506;BME280;47366;51.916;4.574;2023-03-24T03:58:44;99956.81;;;10.02;95.22
61506;BME280;47366;51.916;4.574;2023-03-24T04:01:18;99939.84;;;10.00;94.99
61506;BME280;47366;51.916;4.574;2023-03-24T04:03:51;99943.72;;;9.96;94.61
61506;BME280;47366;51.916;4.574;2023-03-24T04:06:40;99959.44;;;9.91;94.48
61506;BME280;47366;51.916;4.574;2023-03-24T04:17:46;99992.28;;;9.73;93.65
61506;BME280;47366;51.916;4.574;2023-03-24T04:20:19;99984.38;;;9.70;93.67
61506;BME280;47366;51.916;4.574;2023-03-24T04:23:04;99987.81;;;9.72;93.71
61506;BME280;47366;51.916;4.574;2023-03-24T04:31:31;99995.63;;;9.64;93.97
61506;BME280;47366;51.916;4.574;2023-03-24T04:36:43;99999.31;;;9.63;94.19
61506;BME280;47366;51.916;4.574;2023-03-24T04:39:17;100006.44;;;9.64;94.29
61506;BME280;47366;51.916;4.574;2023-03-24T04:41:44;100002.88;;;9.64;94.16
61506;BME280;47366;51.916;4.574;2023-03-24T04:44:11;99993.16;;;9.61;94.08
61506;BME280;47366;51.916;4.574;2023-03-24T04:46:42;100005.91;;;9.59;94.26
61506;BME280;47366;51.916;4.574;2023-03-24T04:49:07;100008.63;;;9.59;94.33
61506;BME280;47366;51.916;4.574;2023-03-24T04:51:33;100016.72;;;9.59;94.55
61506;BME280;47366;51.916;4.574;2023-03-24T04:53:58;100014.88;;;9.60;94.45
61506;BME280;47366;51.916;4.574;2023-03-24T04:58:52;100011.22;;;9.61;94.76
61506;BME280;47366;51.916;4.574;2023-03-24T05:01:18;100016.63;;;9.61;94.61
61506;BME280;47366;51.916;4.574;2023-03-24T05:03:46;100020.28;;;9.60;94.82
61506;BME280;47366;51.916;4.574;2023-03-24T05:06:11;100031.44;;;9.55;95.13
61506;BME280;47366;51.916;4.574;2023-03-24T05:08:37;100033.38;;;9.53;95.05
61506;BME280;47366;51.916;4.574;2023-03-24T05:11:03;100035.13;;;9.54;95.04
61506;BME280;47366;51.916;4.574;2023-03-24T05:13:28;100045.06;;;9.53;94.73
61506;BME280;47366;51.916;4.574;2023-03-24T05:15:54;100046.03;;;9.52;94.79
61506;BME280;47366;51.916;4.574;2023-03-24T05:18:20;100045.38;;;9.49;94.98
61506;BME280;47366;51.916;4.574;2023-03-24T05:20:45;100057.91;;;9.50;94.37
61506;BME280;47366;51.916;4.574;2023-03-24T05:23:10;100062.47;;;9.49;94.66
61506;BME280;47366;51.916;4.574;2023-03-24T05:25:36;100056.94;;;9.51;94.43
61506;BME280;47366;51.916;4.574;2023-03-24T05:28:01;100052.28;;;9.53;94.42
61506;BME280;47366;51.916;4.574;2023-03-24T05:30:27;100053.28;;;9.52;94.49
61506;BME280;47366;51.916;4.574;2023-03-24T05:32:52;100062.91;;;9.56;94.13
61506;BME280;47366;51.916;4.574;2023-03-24T05:35:17;100063.53;;;9.60;94.13
61506;BME280;47366;51.916;4.574;2023-03-24T05:37:43;100069.06;;;9.58;94.17
61506;BME280;47366;51.916;4.574;2023-03-24T05:40:09;100070.69;;;9.61;93.90
61506;BME280;47366;51.916;4.574;2023-03-24T05:42:34;100072.53;;;9.60;93.80
61506;BME280;47366;51.916;4.574;2023-03-24T05:45:00;100071.44;;;9.63;93.43
61506;BME280;47366;51.916;4.574;2023-03-24T05:47:25;100065.16;;;9.62;93.61
61506;BME280;47366;51.916;4.574;2023-03-24T05:49:51;100067.66;;;9.65;93.09
61506;BME280;47366;51.916;4.574;2023-03-24T05:52:16;100076.53;;;9.67;93.13
61506;BME280;47366;51.916;4.574;2023-03-24T05:54:44;100080.97;;;9.68;92.90
61506;BME280;47366;51.916;4.574;2023-03-24T05:57:12;100099.91;;;9.68;92.77
61506;BME280;47366;51.916;4.574;2023-03-24T05:59:39;100085.41;;;9.69;92.90
61506;BME280;47366;51.916;4.574;2023-03-24T06:02:04;100086.25;;;9.70;92.69
61506;BME280;47366;51.916;4.574;2023-03-24T06:04:30;100094.50;;;9.68;92.99
61506;BME280;47366;51.916;4.574;2023-03-24T06:06:56;100101.41;;;9.72;92.71
61506;BME280;47366;51.916;4.574;2023-03-24T06:09:24;100099.44;;;9.74;92.86
61506;BME280;47366;51.916;4.574;2023-03-24T06:11:50;100106.63;;;9.75;92.72
61506;BME280;47366;51.916;4.574;2023-03-24T06:14:15;100110.28;;;9.74;92.68
61506;BME280;47366;51.916;4.574;2023-03-24T06:16:40;100103.78;;;9.77;93.04
61506;BME280;47366;51.916;4.574;2023-03-24T06:19:07;100104.66;;;9.77;92.55
61506;BME280;47366;51.916;4.574;2023-03-24T06:21:33;100116.66;;;9.73;93.23
61506;BME280;47366;51.916;4.574;2023-03-24T06:23:58;100114.81;;;9.74;93.01
61506;BME280;47366;51.916;4.574;2023-03-24T06:26:24;100124.69;;;9.75;92.98
61506;BME280;47366;51.916;4.574;2023-03-24T06:28:50;100123.91;;;9.73;92.76
61506;BME280;47366;51.916;4.574;2023-03-24T06:31:19;100131.72;;;9.77;92.74
61506;BME280;47366;51.916;4.574;2023-03-24T06:33:49;100130.81;;;9.77;92.66
61506;BME280;47366;51.916;4.574;2023-03-24T06:36:15;100132.56;;;9.78;92.85
61506;BME280;47366;51.916;4.574;2023-03-24T06:38:41;100145.03;;;9.81;92.80
61506;BME280;47366;51.916;4.574;2023-03-24T06:41:06;100143.41;;;9.78;92.80
61506;BME280;47366;51.916;4.574;2023-03-24T06:43:32;100144.03;;;9.82;92.61
61506;BME280;47366;51.916;4.574;2023-03-24T06:45:58;100149.25;;;9.85;92.73
61506;BME280;47366;51.916;4.574;2023-03-24T06:48:24;100148.03;;;9.89;92.45
61506;BME280;47366;51.916;4.574;2023-03-24T06:50:54;100151.50;;;9.91;92.29
61506;BME280;47366;51.916;4.574;2023-03-24T06:53:21;100151.31;;;9.94;92.15
61506;BME280;47366;51.916;4.574;2023-03-24T06:55:49;100148.38;;;9.97;92.08
61506;BME280;47366;51.916;4.574;2023-03-24T06:58:15;100146.22;;;10.02;91.82
61506;BME280;47366;51.916;4.574;2023-03-24T07:00:42;100152.69;;;10.12;91.72
61506;BME280;47366;51.916;4.574;2023-03-24T07:03:07;100152.06;;;10.09;91.42
61506;BME280;47366;51.916;4.574;2023-03-24T07:05:40;100160.28;;;10.07;91.63
61506;BME280;47366;51.916;4.574;2023-03-24T07:08:06;100162.75;;;10.10;91.57
61506;BME280;47366;51.916;4.574;2023-03-24T07:10:35;100170.56;;;10.15;91.39
61506;BME280;47366;51.916;4.574;2023-03-24T07:13:01;100167.84;;;10.28;91.13
61506;BME280;47366;51.916;4.574;2023-03-24T07:15:28;100171.75;;;10.24;90.75
61506;BME280;47366;51.916;4.574;2023-03-24T07:17:53;100179.13;;;10.34;90.83
61506;BME280;47366;51.916;4.574;2023-03-24T07:20:19;100178.94;;;10.37;90.53
61506;BME280;47366;51.916;4.574;2023-03-24T07:22:44;100185.84;;;10.41;90.38
61506;BME280;47366;51.916;4.574;2023-03-24T07:25:10;100193.84;;;10.43;90.18
61506;BME280;47366;51.916;4.574;2023-03-24T07:27:38;100188.34;;;10.45;90.44
61506;BME280;47366;51.916;4.574;2023-03-24T07:30:04;100190.72;;;10.49;90.84
61506;BME280;47366;51.916;4.574;2023-03-24T07:32:31;100188.00;;;10.49;90.64
61506;BME280;47366;51.916;4.574;2023-03-24T07:34:59;100187.03;;;10.50;90.50
61506;BME280;47366;51.916;4.574;2023-03-24T07:37:25;100183.88;;;10.56;90.48
61506;BME280;47366;51.916;4.574;2023-03-24T07:39:51;100184.84;;;10.68;89.89
61506;BME280;47366;51.916;4.574;2023-03-24T07:42:16;100193.16;;;10.78;89.73
61506;BME280;47366;51.916;4.574;2023-03-24T07:44:41;100193.59;;;10.84;90.11
61506;BME280;47366;51.916;4.574;2023-03-24T07:47:07;100186.84;;;10.90;89.29
61506;BME280;47366;51.916;4.574;2023-03-24T07:49:32;100181.69;;;10.98;89.10
61506;BME280;47366;51.916;4.574;2023-03-24T07:51:57;100194.13;;;11.38;88.16
61506;BME280;47366;51.916;4.574;2023-03-24T07:54:23;100198.03;;;11.58;86.89
61506;BME280;47366;51.916;4.574;2023-03-24T07:56:49;100195.97;;;11.73;86.18
61506;BME280;47366;51.916;4.574;2023-03-24T07:59:15;100204.06;;;11.85;85.83
61506;BME280;47366;51.916;4.574;2023-03-24T08:01:41;100205.97;;;11.96;85.11
61506;BME280;47366;51.916;4.574;2023-03-24T08:04:10;100199.72;;;12.07;84.55
61506;BME280;47366;51.916;4.574;2023-03-24T08:06:36;100211.31;;;12.20;84.18
61506;BME280;47366;51.916;4.574;2023-03-24T08:09:01;100214.81;;;12.33;83.46
61506;BME280;47366;51.916;4.574;2023-03-24T08:11:27;100213.22;;;12.42;83.18
61506;BME280;47366;51.916;4.574;2023-03-24T08:13:52;100213.59;;;12.49;82.20
61506;BME280;47366;51.916;4.574;2023-03-24T08:16:17;100211.38;;;12.43;81.92
61506;BME280;47366;51.916;4.574;2023-03-24T08:18:43;100219.16;;;12.59;82.34
61506;BME280;47366;51.916;4.574;2023-03-24T08:21:08;100215.31;;;12.84;81.61
61506;BME280;47366;51.916;4.574;2023-03-24T08:23:33;100214.41;;;13.06;80.44
61506;BME280;47366;51.916;4.574;2023-03-24T08:26:01;100210.94;;;13.04;79.43
61506;BME280;47366;51.916;4.574;2023-03-24T08:28:26;100206.78;;;13.11;78.99
61506;BME280;47366;51.916;4.574;2023-03-24T08:30:52;100212.44;;;13.19;78.44
61506;BME280;47366;51.916;4.574;2023-03-24T08:33:17;100207.16;;;12.95;78.92
61506;BME280;47366;51.916;4.574;2023-03-24T08:35:42;100219.53;;;12.99;79.32
61506;BME280;47366;51.916;4.574;2023-03-24T08:38:10;100230.75;;;13.28;79.34
61506;BME280;47366;51.916;4.574;2023-03-24T08:40:39;100232.94;;;13.23;78.39
61506;BME280;47366;51.916;4.574;2023-03-24T08:43:07;100234.06;;;13.09;77.26
61506;BME280;47366;51.916;4.574;2023-03-24T08:45:33;100243.50;;;12.83;78.34
61506;BME280;47366;51.916;4.574;2023-03-24T08:48:00;100237.81;;;12.63;79.14
61506;BME280;47366;51.916;4.574;2023-03-24T08:50:29;100253.22;;;12.63;79.10
61506;BME280;47366;51.916;4.574;2023-03-24T08:52:55;100246.44;;;12.46;79.56
61506;BME280;47366;51.916;4.574;2023-03-24T08:55:21;100251.63;;;12.60;79.61
61506;BME280;47366;51.916;4.574;2023-03-24T08:57:47;100258.19;;;13.03;79.10
61506;BME280;47366;51.916;4.574;2023-03-24T09:00:14;100250.75;;;13.27;78.21
61506;BME280;47366;51.916;4.574;2023-03-24T09:02:41;100275.56;;;13.23;77.20
61506;BME280;47366;51.916;4.574;2023-03-24T09:05:08;100272.78;;;12.90;75.63
61506;BME280;47366;51.916;4.574;2023-03-24T09:07:34;100274.72;;;12.77;76.82
61506;BME280;47366;51.916;4.574;2023-03-24T09:10:00;100273.50;;;12.70;77.21
61506;BME280;47366;51.916;4.574;2023-03-24T09:12:25;100278.09;;;12.81;77.27
61506;BME280;47366;51.916;4.574;2023-03-24T09:14:51;100286.84;;;12.95;77.25
61506;BME280;47366;51.916;4.574;2023-03-24T09:17:16;100278.47;;;12.87;77.69
61506;BME280;47366;51.916;4.574;2023-03-24T09:19:42;100278.44;;;12.76;77.44
61506;BME280;47366;51.916;4.574;2023-03-24T09:22:09;100289.19;;;12.66;76.65
61506;BME280;47366;51.916;4.574;2023-03-24T09:24:35;100289.06;;;12.68;77.46
61506;BME280;47366;51.916;4.574;2023-03-24T09:27:00;100293.16;;;12.73;77.67
61506;BME280;47366;51.916;4.574;2023-03-24T09:29:26;100281.78;;;12.68;73.95
61506;BME280;47366;51.916;4.574;2023-03-24T09:31:51;100288.81;;;12.60;76.40
61506;BME280;47366;51.916;4.574;2023-03-24T09:34:18;100296.72;;;12.51;76.21
61506;BME280;47366;51.916;4.574;2023-03-24T09:36:44;100293.09;;;12.40;76.29
61506;BME280;47366;51.916;4.574;2023-03-24T09:39:10;100297.47;;;12.65;76.59
61506;BME280;47366;51.916;4.574;2023-03-24T09:41:35;100291.91;;;12.66;75.59
61506;BME280;47366;51.916;4.574;2023-03-24T09:49:45;100310.25;;;12.40;75.17
61506;BME280;47366;51.916;4.574;2023-03-24T09:52:13;100302.66;;;12.57;74.05
61506;BME280;47366;51.916;4.574;2023-03-24T09:54:49;100315.38;;;12.56;75.19
61506;BME280;47366;51.916;4.574;2023-03-24T09:57:22;100308.22;;;13.00;73.53
61506;BME280;47366;51.916;4.574;2023-03-24T09:59:49;100296.06;;;13.60;73.14
61506;BME280;47366;51.916;4.574;2023-03-24T10:02:20;100303.41;;;13.92;71.50
61506;BME280;47366;51.916;4.574;2023-03-24T10:04:46;100302.13;;;13.64;71.05
61506;BME280;47366;51.916;4.574;2023-03-24T10:07:26;100294.50;;;13.47;70.65
61506;BME280;47366;51.916;4.574;2023-03-24T10:09:59;100297.63;;;13.86;70.85
61506;BME280;47366;51.916;4.574;2023-03-24T10:12:36;100301.00;;;14.52;69.72
61506;BME280;47366;51.916;4.574;2023-03-24T10:15:29;100303.00;;;14.92;67.45
61506;BME280;47366;51.916;4.574;2023-03-24T10:21:18;100297.03;;;14.35;68.55
61506;BME280;47366;51.916;4.574;2023-03-24T10:23:50;100300.00;;;14.11;70.25
61506;BME280;47366;51.916;4.574;2023-03-24T10:26:25;100301.31;;;14.17;70.58
61506;BME280;47366;51.916;4.574;2023-03-24T10:31:31;100303.25;;;14.68;68.06
61506;BME280;47366;51.916;4.574;2023-03-24T10:33:58;100303.53;;;14.23;68.99
61506;BME280;47366;51.916;4.574;2023-03-24T10:36:25;100311.56;;;13.92;69.64
61506;BME280;47366;51.916;4.574;2023-03-24T10:38:52;100310.41;;;13.63;71.14
61506;BME280;47366;51.916;4.574;2023-03-24T10:41:28;100323.75;;;13.66;71.19
61506;BME280;47366;51.916;4.574;2023-03-24T10:43:55;100311.28;;;13.63;71.69
61506;BME280;47366;51.916;4.574;2023-03-24T10:46:27;100313.97;;;13.74;71.32
61506;BME280;47366;51.916;4.574;2023-03-24T10:51:31;100312.19;;;13.85;71.97
61506;BME280;47366;51.916;4.574;2023-03-24T10:54:10;100311.22;;;13.86;71.76
61506;BME280;47366;51.916;4.574;2023-03-24T10:56:41;100306.16;;;13.81;72.03
61506;BME280;47366;51.916;4.574;2023-03-24T10:59:28;100300.25;;;13.76;72.20
61506;BME280;47366;51.916;4.574;2023-03-24T11:04:33;100309.53;;;13.73;71.79
61506;BME280;47366;51.916;4.574;2023-03-24T11:07:22;100319.78;;;13.81;71.41
61506;BME280;47366;51.916;4.574;2023-03-24T11:12:33;100320.50;;;13.94;70.57
61506;BME280;47366;51.916;4.574;2023-03-24T11:15:02;100310.69;;;14.24;69.09
61506;BME280;47366;51.916;4.574;2023-03-24T11:17:37;100305.22;;;14.56;67.12
61506;BME280;47366;51.916;4.574;2023-03-24T11:20:03;100310.69;;;15.18;67.55
61506;BME280;47366;51.916;4.574;2023-03-24T11:22:32;100310.25;;;15.53;66.53
61506;BME280;47366;51.916;4.574;2023-03-24T11:24:57;100305.41;;;15.16;65.85
61506;BME280;47366;51.916;4.574;2023-03-24T11:27:23;100311.22;;;15.02;66.65
61506;BME280;47366;51.916;4.574;2023-03-24T11:29:51;100321.66;;;14.97;67.34
61506;BME280;47366;51.916;4.574;2023-03-24T11:32:23;100304.44;;;14.75;66.02
61506;BME280;47366;51.916;4.574;2023-03-24T11:35:00;100316.75;;;14.49;64.67
61506;BME280;47366;51.916;4.574;2023-03-24T11:37:30;100328.75;;;14.25;67.01
61506;BME280;47366;51.916;4.574;2023-03-24T11:40:14;100318.97;;;14.22;67.37
61506;BME280;47366;51.916;4.574;2023-03-24T11:42:46;100313.94;;;14.18;67.58
61506;BME280;47366;51.916;4.574;2023-03-24T11:45:42;100323.69;;;13.99;68.04
61506;BME280;47366;51.916;4.574;2023-03-24T11:48:26;100326.09;;;13.70;66.90
61506;BME280;47366;51.916;4.574;2023-03-24T11:50:56;100319.22;;;13.55;68.03
61506;BME280;47366;51.916;4.574;2023-03-24T11:53:26;100323.31;;;13.49;68.14
61506;BME280;47366;51.916;4.574;2023-03-24T12:09:30;100319.16;;;14.84;65.15
61506;BME280;47366;51.916;4.574;2023-03-24T12:17:41;100319.41;;;14.39;66.74
61506;BME280;47366;51.916;4.574;2023-03-24T12:20:32;100297.66;;;14.28;67.21
61506;BME280;47366;51.916;4.574;2023-03-24T12:23:12;100306.66;;;14.18;68.00
61506;BME280;47366;51.916;4.574;2023-03-24T12:26:04;100320.88;;;14.11;67.12
61506;BME280;47366;51.916;4.574;2023-03-24T12:33:55;100318.97;;;13.58;67.44
61506;BME280;47366;51.916;4.574;2023-03-24T12:37:31;100310.31;;;13.53;68.22
61506;BME280;47366;51.916;4.574;2023-03-24T12:39:30;100309.78;;;14.02;67.24
61506;BME280;47366;51.916;4.574;2023-03-24T12:42:14;100308.66;;;14.58;65.25
61506;BME280;47366;51.916;4.574;2023-03-24T12:44:43;100303.75;;;15.04;63.99
61506;BME280;47366;51.916;4.574;2023-03-24T12:57:32;100301.19;;;14.39;65.28
61506;BME280;47366;51.916;4.574;2023-03-24T13:00:03;100297.06;;;14.24;66.54
61506;BME280;47366;51.916;4.574;2023-03-24T13:02:37;100299.25;;;14.09;66.46
61506;BME280;47366;51.916;4.574;2023-03-24T13:05:14;100291.97;;;13.98;67.22
61506;BME280;47366;51.916;4.574;2023-03-24T13:07:41;100288.81;;;13.82;67.05
61506;BME280;47366;51.916;4.574;2023-03-24T13:10:28;100290.97;;;13.67;67.89
61506;BME280;47366;51.916;4.574;2023-03-24T13:12:58;100294.84;;;13.53;68.07
61506;BME280;47366;51.916;4.574;2023-03-24T13:15:30;100304.28;;;13.49;69.60
61506;BME280;47366;51.916;4.574;2023-03-24T13:18:05;100307.59;;;13.42;70.14
61506;BME280;47366;51.916;4.574;2023-03-24T13:20:43;100303.06;;;13.42;71.13
61506;BME280;47366;51.916;4.574;2023-03-24T13:31:43;100302.22;;;13.74;69.27
61506;BME280;47366;51.916;4.574;2023-03-24T13:34:31;100298.88;;;14.14;68.65
61506;BME280;47366;51.916;4.574;2023-03-24T13:37:01;100288.97;;;14.34;67.82
61506;BME280;47366;51.916;4.574;2023-03-24T13:39:28;100284.94;;;14.49;67.07
61506;BME280;47366;51.916;4.574;2023-03-24T13:41:56;100281.31;;;14.49;66.49
61506;BME280;47366;51.916;4.574;2023-03-24T13:44:27;100282.44;;;14.46;67.20
61506;BME280;47366;51.916;4.574;2023-03-24T13:47:13;100286.53;;;14.52;67.14
61506;BME280;47366;51.916;4.574;2023-03-24T13:49:44;100275.28;;;14.45;67.11
61506;BME280;47366;51.916;4.574;2023-03-24T13:52:33;100273.63;;;14.54;66.42
61506;BME280;47366;51.916;4.574;2023-03-24T13:55:01;100276.88;;;14.27;66.73
61506;BME280;47366;51.916;4.574;2023-03-24T13:57:32;100266.41;;;14.11;67.88
61506;BME280;47366;51.916;4.574;2023-03-24T14:02:46;100271.66;;;13.70;67.54
61506;BME280;47366;51.916;4.574;2023-03-24T14:08:11;100260.66;;;14.25;67.86
61506;BME280;47366;51.916;4.574;2023-03-24T14:10:41;100265.75;;;14.39;65.26
61506;BME280;47366;51.916;4.574;2023-03-24T14:15:51;100254.19;;;14.05;65.87
61506;BME280;47366;51.916;4.574;2023-03-24T14:23:44;100257.13;;;14.34;65.12
61506;BME280;47366;51.916;4.574;2023-03-24T14:26:11;100248.84;;;14.36;65.24
61506;BME280;47366;51.916;4.574;2023-03-24T14:28:40;100252.97;;;14.30;65.11
61506;BME280;47366;51.916;4.574;2023-03-24T14:36:08;100258.25;;;14.32;65.09
61506;BME280;47366;51.916;4.574;2023-03-24T14:38:40;100235.59;;;14.31;64.82
61506;BME280;47366;51.916;4.574;2023-03-24T14:41:13;100251.69;;;14.34;64.49
61506;BME280;47366;51.916;4.574;2023-03-24T14:49:16;100238.28;;;14.21;64.90
61506;BME280;47366;51.916;4.574;2023-03-24T14:54:34;100239.69;;;14.16;64.36
61506;BME280;47366;51.916;4.574;2023-03-24T14:57:01;100246.66;;;14.09;65.75
61506;BME280;47366;51.916;4.574;2023-03-24T14:59:48;100250.47;;;14.06;65.89
61506;BME280;47366;51.916;4.574;2023-03-24T15:02:33;100254.81;;;14.09;66.42
61506;BME280;47366;51.916;4.574;2023-03-24T15:07:41;100243.03;;;13.87;66.07
61506;BME280;47366;51.916;4.574;2023-03-24T15:10:18;100243.09;;;13.76;67.08
61506;BME280;47366;51.916;4.574;2023-03-24T15:12:47;100239.75;;;13.72;67.30
61506;BME280;47366;51.916;4.574;2023-03-24T15:15:15;100234.91;;;13.76;67.68
61506;BME280;47366;51.916;4.574;2023-03-24T15:17:42;100240.81;;;13.81;68.00
61506;BME280;47366;51.916;4.574;2023-03-24T15:22:44;100234.66;;;13.79;67.19
61506;BME280;47366;51.916;4.574;2023-03-24T15:25:10;100225.91;;;13.75;67.28